sensor_id;sensor_type;location;lat;lon;timestamp;temperature;humidity
74540;SHT31;66042;51.090;-115.340;2023-01-10T00:00:56;0.58;57.93
74540;SHT31;66042;51.090;-115.340;2023-01-10T00:03:23;0.55;57.90
74540;SHT31;66042;51.090;-115.340;2023-01-10T00:05:50;0.51;57.99
74540;SHT31;66042;51.090;-115.340;2023-01-10T00:08:17;0.47;58.21
74540;SHT31;66042;51.090;-115.340;2023-01-10T00:10:44;0.40;58.47
74540;SHT31;66042;51.090;-115.340;2023-01-10T00:13:13;0.34;58.66
74540;SHT31;66042;51.090;-115.340;2023-01-10T00:15:48;0.26;58.99
74540;SHT31;66042;51.090;-115.340;2023-01-10T00:18:21;0.19;59.21
74540;SHT31;66042;51.090;-115.340;2023-01-10T00:20:48;0.11;59.64
74540;SHT31;66042;51.090;-115.340;2023-01-10T00:23:15;0.03;59.92
74540;SHT31;66042;51.090;-115.340;2023-01-10T00:25:42;-0.02;60.21
74540;SHT31;66042;51.090;-115.340;2023-01-10T00:28:10;-0.11;60.47
74540;SHT31;66042;51.090;-115.340;2023-01-10T00:30:47;-0.17;60.76
74540;SHT31;66042;51.090;-115.340;2023-01-10T00:33:36;-0.25;60.93
74540;SHT31;66042;51.090;-115.340;2023-01-10T00:36:03;-0.30;61.26
74540;SHT31;66042;51.090;-115.340;2023-01-10T00:38:33;-0.35;61.58
74540;SHT31;66042;51.090;-115.340;2023-01-10T00:41:03;-0.40;62.00
74540;SHT31;66042;51.090;-115.340;2023-01-10T00:43:52;-0.43;61.81
74540;SHT31;66042;51.090;-115.340;2023-01-10T00:46:22;-0.44;62.40
74540;SHT31;66042;51.090;-115.340;2023-01-10T00:48:49;-0.51;62.55
74540;SHT31;66042;51.090;-115.340;2023-01-10T00:51:15;-0.51;61.98
74540;SHT31;66042;51.090;-115.340;2023-01-10T00:53:42;-0.48;61.84
74540;SHT31;66042;51.090;-115.340;2023-01-10T00:56:09;-0.48;62.31
74540;SHT31;66042;51.090;-115.340;2023-01-10T00:58:36;-0.45;62.10
74540;SHT31;66042;51.090;-115.340;2023-01-10T01:01:02;-0.41;61.64
74540;SHT31;66042;51.090;-115.340;2023-01-10T01:03:31;-0.37;61.36
74540;SHT31;66042;51.090;-115.340;2023-01-10T01:06:02;-0.34;61.22
74540;SHT31;66042;51.090;-115.340;2023-01-10T01:08:31;-0.31;61.35
74540;SHT31;66042;51.090;-115.340;2023-01-10T01:10:59;-0.32;61.51
74540;SHT31;66042;51.090;-115.340;2023-01-10T01:13:25;-0.33;61.83
74540;SHT31;66042;51.090;-115.340;2023-01-10T01:15:56;-0.35;62.19
74540;SHT31;66042;51.090;-115.340;2023-01-10T01:18:25;-0.41;62.36
74540;SHT31;66042;51.090;-115.340;2023-01-10T01:20:53;-0.46;62.48
74540;SHT31;66042;51.090;-115.340;2023-01-10T01:23:24;-0.50;62.36
74540;SHT31;66042;51.090;-115.340;2023-01-10T01:25:52;-0.55;62.64
74540;SHT31;66042;51.090;-115.340;2023-01-10T01:28:20;-0.58;62.31
74540;SHT31;66042;51.090;-115.340;2023-01-10T01:30:48;-0.63;62.21
74540;SHT31;66042;51.090;-115.340;2023-01-10T01:33:16;-0.69;62.36
74540;SHT31;66042;51.090;-115.340;2023-01-10T01:35:45;-0.75;62.46
74540;SHT31;66042;51.090;-115.340;2023-01-10T01:38:14;-0.80;62.83
74540;SHT31;66042;51.090;-115.340;2023-01-10T01:40:42;-0.83;63.28
74540;SHT31;66042;51.090;-115.340;2023-01-10T01:45:52;-0.89;63.09
74540;SHT31;66042;51.090;-115.340;2023-01-10T01:48:22;-0.91;63.52
74540;SHT31;66042;51.090;-115.340;2023-01-10T01:51:01;-0.96;63.66
74540;SHT31;66042;51.090;-115.340;2023-01-10T01:53:45;-0.99;64.06
74540;SHT31;66042;51.090;-115.340;2023-01-10T01:58:59;-1.06;64.20
74540;SHT31;66042;51.090;-115.340;2023-01-10T02:01:47;-1.07;64.60
74540;SHT31;66042;51.090;-115.340;2023-01-10T02:04:26;-1.07;64.50
74540;SHT31;66042;51.090;-115.340;2023-01-10T02:07:07;-1.07;64.39
74540;SHT31;66042;51.090;-115.340;2023-01-10T02:09:46;-1.07;64.59
74540;SHT31;66042;51.090;-115.340;2023-01-10T02:12:19;-1.05;64.95
74540;SHT31;66042;51.090;-115.340;2023-01-10T02:14:47;-1.03;65.18
74540;SHT31;66042;51.090;-115.340;2023-01-10T02:17:16;-1.02;65.16
74540;SHT31;66042;51.090;-115.340;2023-01-10T02:19:50;-1.00;65.54
74540;SHT31;66042;51.090;-115.340;2023-01-10T02:26:08;-0.92;65.35
74540;SHT31;66042;51.090;-115.340;2023-01-10T02:37:44;-0.90;65.62
74540;SHT31;66042;51.090;-115.340;2023-01-10T02:40:45;-0.90;65.19
74540;SHT31;66042;51.090;-115.340;2023-01-10T02:43:30;-0.84;64.74
74540;SHT31;66042;51.090;-115.340;2023-01-10T02:46:05;-0.79;64.52
74540;SHT31;66042;51.090;-115.340;2023-01-10T02:48:40;-0.75;64.50
74540;SHT31;66042;51.090;-115.340;2023-01-10T03:02:03;-0.78;64.62
74540;SHT31;66042;51.090;-115.340;2023-01-10T03:05:02;-0.81;64.74
74540;SHT31;66042;51.090;-115.340;2023-01-10T03:10:55;-0.87;64.97
74540;SHT31;66042;51.090;-115.340;2023-01-10T03:13:33;-0.91;64.99
74540;SHT31;66042;51.090;-115.340;2023-01-10T03:16:07;-0.94;64.96
74540;SHT31;66042;51.090;-115.340;2023-01-10T03:18:44;-0.97;64.98
74540;SHT31;66042;51.090;-115.340;2023-01-10T03:21:26;-0.99;65.14
74540;SHT31;66042;51.090;-115.340;2023-01-10T03:23:58;-1.00;65.17
74540;SHT31;66042;51.090;-115.340;2023-01-10T03:26:43;-1.02;65.24
74540;SHT31;66042;51.090;-115.340;2023-01-10T03:29:27;-1.04;65.31
74540;SHT31;66042;51.090;-115.340;2023-01-10T03:32:25;-1.05;65.52
74540;SHT31;66042;51.090;-115.340;2023-01-10T03:34:55;-1.05;65.54
74540;SHT31;66042;51.090;-115.340;2023-01-10T03:43:36;-1.09;65.91
74540;SHT31;66042;51.090;-115.340;2023-01-10T03:49:45;-1.11;66.07
74540;SHT31;66042;51.090;-115.340;2023-01-10T03:52:19;-1.10;66.04
74540;SHT31;66042;51.090;-115.340;2023-01-10T03:54:47;-1.10;66.22
74540;SHT31;66042;51.090;-115.340;2023-01-10T03:57:19;-1.11;66.21
74540;SHT31;66042;51.090;-115.340;2023-01-10T03:59:51;-1.10;66.24
74540;SHT31;66042;51.090;-115.340;2023-01-10T04:02:27;-1.06;66.14
74540;SHT31;66042;51.090;-115.340;2023-01-10T04:04:56;-1.00;66.04
74540;SHT31;66042;51.090;-115.340;2023-01-10T04:07:24;-0.96;66.06
74540;SHT31;66042;51.090;-115.340;2023-01-10T04:09:52;-0.88;65.87
74540;SHT31;66042;51.090;-115.340;2023-01-10T04:12:19;-0.81;65.75
74540;SHT31;66042;51.090;-115.340;2023-01-10T04:14:49;-0.76;65.59
74540;SHT31;66042;51.090;-115.340;2023-01-10T04:17:16;-0.74;65.52
74540;SHT31;66042;51.090;-115.340;2023-01-10T04:19:44;-0.73;65.54
74540;SHT31;66042;51.090;-115.340;2023-01-10T04:22:11;-0.72;65.61
74540;SHT31;66042;51.090;-115.340;2023-01-10T04:24:38;-0.74;65.72
74540;SHT31;66042;51.090;-115.340;2023-01-10T04:27:05;-0.75;65.89
74540;SHT31;66042;51.090;-115.340;2023-01-10T04:29:32;-0.77;66.00
74540;SHT31;66042;51.090;-115.340;2023-01-10T04:31:59;-0.82;66.20
74540;SHT31;66042;51.090;-115.340;2023-01-10T04:34:26;-0.88;66.48
74540;SHT31;66042;51.090;-115.340;2023-01-10T04:36:53;-0.91;66.47
74540;SHT31;66042;51.090;-115.340;2023-01-10T04:39:20;-0.93;66.38
74540;SHT31;66042;51.090;-115.340;2023-01-10T04:41:47;-0.96;66.47
74540;SHT31;66042;51.090;-115.340;2023-01-10T04:44:14;-0.98;66.48
74540;SHT31;66042;51.090;-115.340;2023-01-10T04:46:42;-1.02;66.71
74540;SHT31;66042;51.090;-115.340;2023-01-10T04:49:09;-1.05;66.63
74540;SHT31;66042;51.090;-115.340;2023-01-10T04:51:37;-1.07;66.58
74540;SHT31;66042;51.090;-115.340;2023-01-10T04:54:04;-1.10;66.60
74540;SHT31;66042;51.090;-115.340;2023-01-10T04:56:31;-1.11;66.58
74540;SHT31;66042;51.090;-115.340;2023-01-10T04:58:59;-1.12;66.70
74540;SHT31;66042;51.090;-115.340;2023-01-10T05:01:26;-1.15;66.79
74540;SHT31;66042;51.090;-115.340;2023-01-10T05:03:54;-1.19;67.02
74540;SHT31;66042;51.090;-115.340;2023-01-10T05:06:22;-1.23;67.19
74540;SHT31;66042;51.090;-115.340;2023-01-10T05:08:49;-1.26;67.19
74540;SHT31;66042;51.090;-115.340;2023-01-10T05:11:17;-1.27;67.09
74540;SHT31;66042;51.090;-115.340;2023-01-10T05:13:44;-1.29;67.04
74540;SHT31;66042;51.090;-115.340;2023-01-10T05:16:11;-1.31;67.30
74540;SHT31;66042;51.090;-115.340;2023-01-10T05:18:38;-1.30;67.21
74540;SHT31;66042;51.090;-115.340;2023-01-10T05:21:07;-1.31;67.29
74540;SHT31;66042;51.090;-115.340;2023-01-10T05:23:36;-1.36;67.51
74540;SHT31;66042;51.090;-115.340;2023-01-10T05:26:05;-1.38;67.76
74540;SHT31;66042;51.090;-115.340;2023-01-10T05:28:33;-1.38;67.70
74540;SHT31;66042;51.090;-115.340;2023-01-10T05:31:01;-1.33;67.54
74540;SHT31;66042;51.090;-115.340;2023-01-10T05:33:31;-1.26;67.43
74540;SHT31;66042;51.090;-115.340;2023-01-10T05:36:03;-1.18;67.29
74540;SHT31;66042;51.090;-115.340;2023-01-10T05:38:31;-1.11;67.12
74540;SHT31;66042;51.090;-115.340;2023-01-10T05:40:59;-1.06;67.06
74540;SHT31;66042;51.090;-115.340;2023-01-10T05:43:27;-1.01;66.83
74540;SHT31;66042;51.090;-115.340;2023-01-10T05:45:54;-0.97;66.81
74540;SHT31;66042;51.090;-115.340;2023-01-10T05:48:21;-0.94;66.82
74540;SHT31;66042;51.090;-115.340;2023-01-10T05:50:48;-0.92;66.77
74540;SHT31;66042;51.090;-115.340;2023-01-10T05:53:17;-0.90;66.64
74540;SHT31;66042;51.090;-115.340;2023-01-10T05:55:54;-0.89;66.63
74540;SHT31;66042;51.090;-115.340;2023-01-10T05:58:26;-0.90;66.70
74540;SHT31;66042;51.090;-115.340;2023-01-10T06:00:54;-0.91;66.77
74540;SHT31;66042;51.090;-115.340;2023-01-10T06:03:22;-0.94;66.85
74540;SHT31;66042;51.090;-115.340;2023-01-10T06:05:51;-0.97;66.98
74540;SHT31;66042;51.090;-115.340;2023-01-10T06:08:19;-1.00;67.02
74540;SHT31;66042;51.090;-115.340;2023-01-10T06:10:47;-1.04;67.09
74540;SHT31;66042;51.090;-115.340;2023-01-10T06:13:14;-1.08;67.16
74540;SHT31;66042;51.090;-115.340;2023-01-10T06:15:42;-1.11;67.32
74540;SHT31;66042;51.090;-115.340;2023-01-10T06:18:10;-1.14;67.40
74540;SHT31;66042;51.090;-115.340;2023-01-10T06:20:36;-1.18;67.51
74540;SHT31;66042;51.090;-115.340;2023-01-10T06:23:04;-1.21;67.61
74540;SHT31;66042;51.090;-115.340;2023-01-10T06:25:31;-1.22;67.78
74540;SHT31;66042;51.090;-115.340;2023-01-10T06:28:01;-1.22;67.88
74540;SHT31;66042;51.090;-115.340;2023-01-10T06:30:28;-1.22;67.92
74540;SHT31;66042;51.090;-115.340;2023-01-10T06:32:59;-1.22;67.95
74540;SHT31;66042;51.090;-115.340;2023-01-10T06:35:27;-1.23;68.00
74540;SHT31;66042;51.090;-115.340;2023-01-10T06:37:55;-1.24;68.05
74540;SHT31;66042;51.090;-115.340;2023-01-10T06:40:23;-1.26;68.11
74540;SHT31;66042;51.090;-115.340;2023-01-10T06:42:51;-1.27;68.11
74540;SHT31;66042;51.090;-115.340;2023-01-10T06:45:18;-1.30;68.21
74540;SHT31;66042;51.090;-115.340;2023-01-10T06:47:46;-1.33;68.31
74540;SHT31;66042;51.090;-115.340;2023-01-10T06:50:13;-1.37;68.40
74540;SHT31;66042;51.090;-115.340;2023-01-10T06:52:39;-1.39;68.49
74540;SHT31;66042;51.090;-115.340;2023-01-10T06:55:07;-1.42;68.51
74540;SHT31;66042;51.090;-115.340;2023-01-10T06:57:34;-1.44;68.59
74540;SHT31;66042;51.090;-115.340;2023-01-10T07:00:06;-1.48;68.65
74540;SHT31;66042;51.090;-115.340;2023-01-10T07:02:36;-1.50;68.72
74540;SHT31;66042;51.090;-115.340;2023-01-10T07:05:03;-1.52;68.81
74540;SHT31;66042;51.090;-115.340;2023-01-10T07:07:30;-1.54;68.85
74540;SHT31;66042;51.090;-115.340;2023-01-10T07:09:57;-1.52;68.85
74540;SHT31;66042;51.090;-115.340;2023-01-10T07:12:24;-1.52;68.82
74540;SHT31;66042;51.090;-115.340;2023-01-10T07:14:51;-1.50;68.77
74540;SHT31;66042;51.090;-115.340;2023-01-10T07:17:18;-1.50;68.75
74540;SHT31;66042;51.090;-115.340;2023-01-10T07:19:46;-1.47;68.70
74540;SHT31;66042;51.090;-115.340;2023-01-10T07:22:13;-1.46;68.70
74540;SHT31;66042;51.090;-115.340;2023-01-10T07:24:40;-1.46;68.67
74540;SHT31;66042;51.090;-115.340;2023-01-10T07:27:07;-1.46;68.61
74540;SHT31;66042;51.090;-115.340;2023-01-10T07:29:34;-1.47;68.59
74540;SHT31;66042;51.090;-115.340;2023-01-10T07:32:01;-1.50;68.60
74540;SHT31;66042;51.090;-115.340;2023-01-10T07:34:28;-1.52;68.61
74540;SHT31;66042;51.090;-115.340;2023-01-10T07:36:55;-1.55;68.67
74540;SHT31;66042;51.090;-115.340;2023-01-10T07:39:22;-1.58;68.74
74540;SHT31;66042;51.090;-115.340;2023-01-10T07:41:49;-1.61;68.80
74540;SHT31;66042;51.090;-115.340;2023-01-10T07:44:17;-1.66;68.93
74540;SHT31;66042;51.090;-115.340;2023-01-10T07:46:44;-1.69;69.00
74540;SHT31;66042;51.090;-115.340;2023-01-10T07:49:11;-1.72;69.06
74540;SHT31;66042;51.090;-115.340;2023-01-10T07:51:38;-1.74;69.16
74540;SHT31;66042;51.090;-115.340;2023-01-10T07:54:05;-1.78;69.32
74540;SHT31;66042;51.090;-115.340;2023-01-10T07:56:32;-1.79;69.45
74540;SHT31;66042;51.090;-115.340;2023-01-10T07:58:59;-1.80;69.48
74540;SHT31;66042;51.090;-115.340;2023-01-10T08:01:29;-1.80;69.53
74540;SHT31;66042;51.090;-115.340;2023-01-10T08:03:56;-1.81;69.62
74540;SHT31;66042;51.090;-115.340;2023-01-10T08:06:23;-1.83;69.74
74540;SHT31;66042;51.090;-115.340;2023-01-10T08:08:50;-1.86;69.82
74540;SHT31;66042;51.090;-115.340;2023-01-10T08:11:17;-1.88;69.80
74540;SHT31;66042;51.090;-115.340;2023-01-10T08:24:47;-2.07;70.23
74540;SHT31;66042;51.090;-115.340;2023-01-10T08:27:14;-2.11;70.30
74540;SHT31;66042;51.090;-115.340;2023-01-10T08:29:41;-2.14;70.40
74540;SHT31;66042;51.090;-115.340;2023-01-10T08:32:08;-2.17;70.44
74540;SHT31;66042;51.090;-115.340;2023-01-10T08:34:36;-2.20;70.59
74540;SHT31;66042;51.090;-115.340;2023-01-10T08:37:03;-2.22;70.63
74540;SHT31;66042;51.090;-115.340;2023-01-10T08:39:30;-2.22;70.68
74540;SHT31;66042;51.090;-115.340;2023-01-10T08:41:59;-2.20;70.73
74540;SHT31;66042;51.090;-115.340;2023-01-10T08:44:26;-2.18;70.74
74540;SHT31;66042;51.090;-115.340;2023-01-10T08:46:53;-2.15;70.69
74540;SHT31;66042;51.090;-115.340;2023-01-10T08:49:21;-2.12;70.60
74540;SHT31;66042;51.090;-115.340;2023-01-10T08:51:48;-2.08;70.55
74540;SHT31;66042;51.090;-115.340;2023-01-10T08:54:15;-2.06;70.50
74540;SHT31;66042;51.090;-115.340;2023-01-10T08:56:42;-2.04;70.44
74540;SHT31;66042;51.090;-115.340;2023-01-10T08:59:09;-2.01;70.38
74540;SHT31;66042;51.090;-115.340;2023-01-10T09:01:36;-2.00;70.33
74540;SHT31;66042;51.090;-115.340;2023-01-10T09:04:03;-2.00;70.39
74540;SHT31;66042;51.090;-115.340;2023-01-10T09:06:30;-2.00;70.38
74540;SHT31;66042;51.090;-115.340;2023-01-10T09:08:57;-2.01;70.44
74540;SHT31;66042;51.090;-115.340;2023-01-10T09:11:24;-2.05;70.51
74540;SHT31;66042;51.090;-115.340;2023-01-10T09:13:50;-2.06;70.60
74540;SHT31;66042;51.090;-115.340;2023-01-10T09:16:17;-2.09;70.58
74540;SHT31;66042;51.090;-115.340;2023-01-10T09:18:44;-2.12;70.65
74540;SHT31;66042;51.090;-115.340;2023-01-10T09:21:11;-2.15;70.70
74540;SHT31;66042;51.090;-115.340;2023-01-10T09:23:38;-2.17;70.68
74540;SHT31;66042;51.090;-115.340;2023-01-10T09:26:07;-2.20;70.78
74540;SHT31;66042;51.090;-115.340;2023-01-10T09:28:35;-2.22;70.91
74540;SHT31;66042;51.090;-115.340;2023-01-10T09:31:02;-2.24;70.93
74540;SHT31;66042;51.090;-115.340;2023-01-10T09:33:29;-2.26;70.97
74540;SHT31;66042;51.090;-115.340;2023-01-10T09:35:57;-2.29;71.00
74540;SHT31;66042;51.090;-115.340;2023-01-10T09:38:24;-2.26;70.95
74540;SHT31;66042;51.090;-115.340;2023-01-10T09:46:46;-2.12;70.79
74540;SHT31;66042;51.090;-115.340;2023-01-10T09:49:57;-2.09;70.68
74540;SHT31;66042;51.090;-115.340;2023-01-10T09:52:30;-2.05;70.63
74540;SHT31;66042;51.090;-115.340;2023-01-10T09:55:14;-2.04;70.51
74540;SHT31;66042;51.090;-115.340;2023-01-10T09:58:03;-2.01;70.40
74540;SHT31;66042;51.090;-115.340;2023-01-10T10:00:49;-2.03;70.40
74540;SHT31;66042;51.090;-115.340;2023-01-10T10:06:16;-2.07;70.35
74540;SHT31;66042;51.090;-115.340;2023-01-10T10:08:46;-2.10;70.40
74540;SHT31;66042;51.090;-115.340;2023-01-10T10:19:39;-2.25;70.66
74540;SHT31;66042;51.090;-115.340;2023-01-10T10:37:08;-2.45;71.17
74540;SHT31;66042;51.090;-115.340;2023-01-10T10:40:05;-2.44;71.37
74540;SHT31;66042;51.090;-115.340;2023-01-10T10:42:44;-2.40;71.33
74540;SHT31;66042;51.090;-115.340;2023-01-10T10:45:30;-2.36;71.28
74540;SHT31;66042;51.090;-115.340;2023-01-10T10:48:18;-2.33;71.23
74540;SHT31;66042;51.090;-115.340;2023-01-10T10:50:59;-2.34;71.25
74540;SHT31;66042;51.090;-115.340;2023-01-10T10:53:50;-2.34;71.22
74540;SHT31;66042;51.090;-115.340;2023-01-10T10:56:18;-2.33;71.30
74540;SHT31;66042;51.090;-115.340;2023-01-10T10:58:50;-2.33;71.35
74540;SHT31;66042;51.090;-115.340;2023-01-10T11:01:21;-2.34;71.40
74540;SHT31;66042;51.090;-115.340;2023-01-10T11:06:21;-2.38;71.42
74540;SHT31;66042;51.090;-115.340;2023-01-10T11:08:53;-2.41;71.51
74540;SHT31;66042;51.090;-115.340;2023-01-10T11:11:27;-2.45;71.60
74540;SHT31;66042;51.090;-115.340;2023-01-10T11:14:05;-2.46;71.58
74540;SHT31;66042;51.090;-115.340;2023-01-10T11:16:34;-2.49;71.66
74540;SHT31;66042;51.090;-115.340;2023-01-10T11:19:08;-2.52;71.70
74540;SHT31;66042;51.090;-115.340;2023-01-10T11:24:38;-2.57;71.84
74540;SHT31;66042;51.090;-115.340;2023-01-10T11:27:42;-2.57;71.88
74540;SHT31;66042;51.090;-115.340;2023-01-10T11:30:21;-2.54;71.71
74540;SHT31;66042;51.090;-115.340;2023-01-10T11:32:54;-2.50;71.70
74540;SHT31;66042;51.090;-115.340;2023-01-10T11:38:04;-2.42;71.52
74540;SHT31;66042;51.090;-115.340;2023-01-10T11:43:45;-2.32;71.50
74540;SHT31;66042;51.090;-115.340;2023-01-10T11:46:15;-2.30;71.45
74540;SHT31;66042;51.090;-115.340;2023-01-10T11:49:00;-2.29;71.42
74540;SHT31;66042;51.090;-115.340;2023-01-10T11:51:42;-2.33;71.58
74540;SHT31;66042;51.090;-115.340;2023-01-10T11:54:26;-2.35;71.50
74540;SHT31;66042;51.090;-115.340;2023-01-10T11:56:57;-2.34;71.43
74540;SHT31;66042;51.090;-115.340;2023-01-10T11:59:51;-2.37;71.54
74540;SHT31;66042;51.090;-115.340;2023-01-10T12:02:24;-2.41;71.66
74540;SHT31;66042;51.090;-115.340;2023-01-10T12:05:02;-2.41;71.75
74540;SHT31;66042;51.090;-115.340;2023-01-10T12:10:32;-2.40;72.04
74540;SHT31;66042;51.090;-115.340;2023-01-10T12:13:12;-2.39;71.91
74540;SHT31;66042;51.090;-115.340;2023-01-10T12:15:41;-2.35;71.81
74540;SHT31;66042;51.090;-115.340;2023-01-10T12:18:11;-2.34;71.88
74540;SHT31;66042;51.090;-115.340;2023-01-10T12:20:44;-2.31;71.83
74540;SHT31;66042;51.090;-115.340;2023-01-10T12:23:18;-2.30;71.75
74540;SHT31;66042;51.090;-115.340;2023-01-10T12:25:49;-2.29;71.70
74540;SHT31;66042;51.090;-115.340;2023-01-10T12:28:23;-2.28;71.73
74540;SHT31;66042;51.090;-115.340;2023-01-10T12:30:56;-2.26;71.82
74540;SHT31;66042;51.090;-115.340;2023-01-10T12:35:57;-2.30;71.87
74540;SHT31;66042;51.090;-115.340;2023-01-10T12:38:39;-2.31;71.98
74540;SHT31;66042;51.090;-115.340;2023-01-10T12:44:52;-2.35;72.13
74540;SHT31;66042;51.090;-115.340;2023-01-10T12:50:27;-2.36;72.16
74540;SHT31;66042;51.090;-115.340;2023-01-10T12:53:06;-2.37;72.15
74540;SHT31;66042;51.090;-115.340;2023-01-10T12:56:06;-2.39;72.21
74540;SHT31;66042;51.090;-115.340;2023-01-10T12:58:40;-2.40;72.27
74540;SHT31;66042;51.090;-115.340;2023-01-10T13:01:18;-2.42;72.22
74540;SHT31;66042;51.090;-115.340;2023-01-10T13:03:53;-2.47;72.30
74540;SHT31;66042;51.090;-115.340;2023-01-10T13:06:31;-2.52;72.41
74540;SHT31;66042;51.090;-115.340;2023-01-10T13:09:06;-2.55;72.42
74540;SHT31;66042;51.090;-115.340;2023-01-10T13:11:43;-2.58;72.40
74540;SHT31;66042;51.090;-115.340;2023-01-10T13:14:46;-2.61;72.33
74540;SHT31;66042;51.090;-115.340;2023-01-10T13:17:51;-2.66;72.51
74540;SHT31;66042;51.090;-115.340;2023-01-10T13:21:09;-2.71;72.55
74540;SHT31;66042;51.090;-115.340;2023-01-10T13:23:49;-2.70;72.67
74540;SHT31;66042;51.090;-115.340;2023-01-10T13:26:21;-2.69;72.69
74540;SHT31;66042;51.090;-115.340;2023-01-10T13:31:30;-2.63;72.51
74540;SHT31;66042;51.090;-115.340;2023-01-10T13:34:01;-2.60;72.41
74540;SHT31;66042;51.090;-115.340;2023-01-10T13:36:41;-2.56;72.30
74540;SHT31;66042;51.090;-115.340;2023-01-10T13:39:21;-2.55;72.24
74540;SHT31;66042;51.090;-115.340;2023-01-10T13:50:51;-2.64;72.36
74540;SHT31;66042;51.090;-115.340;2023-01-10T14:01:27;-2.79;72.65
74540;SHT31;66042;51.090;-115.340;2023-01-10T14:04:30;-2.83;72.71
74540;SHT31;66042;51.090;-115.340;2023-01-10T14:09:45;-2.90;72.77
74540;SHT31;66042;51.090;-115.340;2023-01-10T14:12:16;-2.93;72.82
74540;SHT31;66042;51.090;-115.340;2023-01-10T14:18:44;-2.98;72.90
74540;SHT31;66042;51.090;-115.340;2023-01-10T14:21:17;-2.96;72.91
74540;SHT31;66042;51.090;-115.340;2023-01-10T14:23:51;-2.94;72.90
74540;SHT31;66042;51.090;-115.340;2023-01-10T14:26:25;-2.92;72.85
74540;SHT31;66042;51.090;-115.340;2023-01-10T14:29:06;-2.90;72.81
74540;SHT31;66042;51.090;-115.340;2023-01-10T14:31:43;-2.89;72.80
74540;SHT31;66042;51.090;-115.340;2023-01-10T14:34:31;-2.89;72.80
74540;SHT31;66042;51.090;-115.340;2023-01-10T14:37:08;-2.88;72.80
74540;SHT31;66042;51.090;-115.340;2023-01-10T14:39:57;-2.88;72.89
74540;SHT31;66042;51.090;-115.340;2023-01-10T14:42:25;-2.90;73.05
74540;SHT31;66042;51.090;-115.340;2023-01-10T14:47:43;-2.95;73.12
74540;SHT31;66042;51.090;-115.340;2023-01-10T14:50:26;-2.95;73.15
74540;SHT31;66042;51.090;-115.340;2023-01-10T14:52:57;-2.94;73.27
74540;SHT31;66042;51.090;-115.340;2023-01-10T14:55:25;-2.96;73.23
74540;SHT31;66042;51.090;-115.340;2023-01-10T14:57:53;-2.99;73.27
74540;SHT31;66042;51.090;-115.340;2023-01-10T15:00:27;-3.01;73.30
74540;SHT31;66042;51.090;-115.340;2023-01-10T15:02:59;-3.03;73.36
74540;SHT31;66042;51.090;-115.340;2023-01-10T15:05:29;-3.06;73.47
74540;SHT31;66042;51.090;-115.340;2023-01-10T15:08:23;-3.09;73.40
74540;SHT31;66042;51.090;-115.340;2023-01-10T15:10:58;-3.13;73.37
74540;SHT31;66042;51.090;-115.340;2023-01-10T15:13:34;-3.15;73.42
74540;SHT31;66042;51.090;-115.340;2023-01-10T15:16:14;-3.18;73.50
74540;SHT31;66042;51.090;-115.340;2023-01-10T15:18:48;-3.21;73.51
74540;SHT31;66042;51.090;-115.340;2023-01-10T15:21:16;-3.25;73.50
74540;SHT31;66042;51.090;-115.340;2023-01-10T15:23:46;-3.29;73.60
74540;SHT31;66042;51.090;-115.340;2023-01-10T15:29:02;-3.38;73.53
74540;SHT31;66042;51.090;-115.340;2023-01-10T15:31:50;-3.44;73.42
74540;SHT31;66042;51.090;-115.340;2023-01-10T15:34:23;-3.48;73.46
74540;SHT31;66042;51.090;-115.340;2023-01-10T15:36:56;-3.47;73.51
74540;SHT31;66042;51.090;-115.340;2023-01-10T15:39:36;-3.49;73.50
74540;SHT31;66042;51.090;-115.340;2023-01-10T15:42:07;-3.46;73.48
74540;SHT31;66042;51.090;-115.340;2023-01-10T15:44:40;-3.43;73.47
74540;SHT31;66042;51.090;-115.340;2023-01-10T15:53:18;-3.49;73.15
74540;SHT31;66042;51.090;-115.340;2023-01-10T15:56:09;-3.55;72.91
74540;SHT31;66042;51.090;-115.340;2023-01-10T15:58:43;-3.63;72.82
74540;SHT31;66042;51.090;-115.340;2023-01-10T16:01:12;-3.66;73.02
74540;SHT31;66042;51.090;-115.340;2023-01-10T16:06:39;-3.64;73.34
74540;SHT31;66042;51.090;-115.340;2023-01-10T16:09:07;-3.62;73.48
74540;SHT31;66042;51.090;-115.340;2023-01-10T16:11:50;-3.60;73.63
74540;SHT31;66042;51.090;-115.340;2023-01-10T16:14:36;-3.57;73.70
74540;SHT31;66042;51.090;-115.340;2023-01-10T16:17:03;-3.55;73.76
74540;SHT31;66042;51.090;-115.340;2023-01-10T16:19:31;-3.53;73.92
74540;SHT31;66042;51.090;-115.340;2023-01-10T16:21:59;-3.52;73.92
74540;SHT31;66042;51.090;-115.340;2023-01-10T16:24:28;-3.50;73.98
74540;SHT31;66042;51.090;-115.340;2023-01-10T16:27:01;-3.45;73.92
74540;SHT31;66042;51.090;-115.340;2023-01-10T16:29:30;-3.40;73.90
74540;SHT31;66042;51.090;-115.340;2023-01-10T16:31:58;-3.37;73.79
74540;SHT31;66042;51.090;-115.340;2023-01-10T16:34:26;-3.34;73.53
74540;SHT31;66042;51.090;-115.340;2023-01-10T16:36:52;-3.30;73.36
74540;SHT31;66042;51.090;-115.340;2023-01-10T16:39:20;-3.26;73.30
74540;SHT31;66042;51.090;-115.340;2023-01-10T16:41:49;-3.23;73.32
74540;SHT31;66042;51.090;-115.340;2023-01-10T16:44:34;-3.19;73.28
74540;SHT31;66042;51.090;-115.340;2023-01-10T16:47:01;-3.15;73.17
74540;SHT31;66042;51.090;-115.340;2023-01-10T16:49:28;-3.12;73.19
74540;SHT31;66042;51.090;-115.340;2023-01-10T16:51:56;-3.10;73.06
74540;SHT31;66042;51.090;-115.340;2023-01-10T16:54:23;-3.10;73.00
74540;SHT31;66042;51.090;-115.340;2023-01-10T16:56:50;-3.07;73.04
74540;SHT31;66042;51.090;-115.340;2023-01-10T16:59:17;-3.05;73.00
74540;SHT31;66042;51.090;-115.340;2023-01-10T17:01:51;-3.02;72.90
74540;SHT31;66042;51.090;-115.340;2023-01-10T17:04:22;-3.02;72.74
74540;SHT31;66042;51.090;-115.340;2023-01-10T17:06:57;-3.01;72.70
74540;SHT31;66042;51.090;-115.340;2023-01-10T17:12:04;-3.02;72.91
74540;SHT31;66042;51.090;-115.340;2023-01-10T17:14:39;-3.02;72.91
74540;SHT31;66042;51.090;-115.340;2023-01-10T17:17:06;-3.02;72.98
74540;SHT31;66042;51.090;-115.340;2023-01-10T17:19:35;-3.00;73.03
74540;SHT31;66042;51.090;-115.340;2023-01-10T17:22:03;-2.95;73.00
74540;SHT31;66042;51.090;-115.340;2023-01-10T17:24:30;-2.90;72.97
74540;SHT31;66042;51.090;-115.340;2023-01-10T17:26:57;-2.82;72.99
74540;SHT31;66042;51.090;-115.340;2023-01-10T17:29:24;-2.76;72.89
74540;SHT31;66042;51.090;-115.340;2023-01-10T17:31:51;-2.70;72.73
74540;SHT31;66042;51.090;-115.340;2023-01-10T17:34:18;-2.64;72.66
74540;SHT31;66042;51.090;-115.340;2023-01-10T17:36:45;-2.58;72.64
74540;SHT31;66042;51.090;-115.340;2023-01-10T17:39:15;-2.54;72.51
74540;SHT31;66042;51.090;-115.340;2023-01-10T17:41:42;-2.51;72.48
74540;SHT31;66042;51.090;-115.340;2023-01-10T17:44:09;-2.47;72.48
74540;SHT31;66042;51.090;-115.340;2023-01-10T17:46:36;-2.43;72.55
74540;SHT31;66042;51.090;-115.340;2023-01-10T17:49:04;-2.43;72.60